This is the latest recevied weather packets stored in our database for station/object SM6LNJ-10. If no packets are shown the sender has not sent any weather packets the latest 10 day(s).
| Time | Temp. | Humidity | Pressure | Rain* | Wind** | Luminosity | Snow |
|---|---|---|---|---|---|---|---|
| 1788410830 | 22.78° C | 43% | 1008.9 hPa | - | - | - | - |
| 1788409930 | 22.22° C | 44% | 1009.1 hPa | - | - | - | - |
| 1788409029 | 22.78° C | 43% | 1009.2 hPa | - | - | - | - |
| 1788408128 | 22.78° C | 43% | 1009.2 hPa | - | - | - | - |
| 1788407227 | 22.78° C | 43% | 1009.3 hPa | - | - | - | - |
| 1788406327 | 23.33° C | 42% | 1009.3 hPa | - | - | - | - |
| 1788405425 | 23.33° C | 43% | 1009.4 hPa | - | - | - | - |
| 1788404525 | 23.89° C | 42% | 1009.2 hPa | - | - | - | - |
| 1788400021 | 23.89° C | 42% | 1009.5 hPa | - | - | - | - |
| 1788381104 | 23.89° C | 46% | 1009.5 hPa | - | - | - | - |
| 1788377501 | 24.44° C | 44% | 1009.7 hPa | - | - | - | - |
| 1788373897 | 25° C | 43% | 1009.6 hPa | - | - | - | - |
| 1788372096 | 25.56° C | 42% | 1009.5 hPa | - | - | - | - |
| 1788371195 | 26.11° C | 42% | 1009.7 hPa | - | - | - | - |
| 1788370294 | 26.11° C | 41% | 1009.6 hPa | - | - | - | - |
| 1788368493 | 27.22° C | 40% | 1009.8 hPa | - | - | - | - |
| 1788363989 | 27.78° C | 40% | 1010 hPa | - | - | - | - |
| 1788360385 | 27.22° C | 41% | 1010.2 hPa | - | - | - | - |
| 1788358583 | 26.67° C | 43% | 1010.2 hPa | - | - | - | - |
| 1788357682 | 26.67° C | 43% | 1010.3 hPa | - | - | - | - |
| 1788355881 | 26.11° C | 44% | 1010.3 hPa | - | - | - | - |
| 1788354980 | 26.11° C | 44% | 1010.4 hPa | - | - | - | - |
| 1788354079 | 26.11° C | 45% | 1010.4 hPa | - | - | - | - |
| 1788352277 | 25.56° C | 46% | 1010.5 hPa | - | - | - | - |
| 1788351377 | 25.56° C | 45% | 1010.6 hPa | - | - | - | - |
* Rain since midnight (hover to see other rain measurements)
** Current wind speed in m/s (hover to see current wind gust speed)